Time;durP1;ratioP1;P1;durP2;ratioP2;P2;SDS_P1;SDS_P2;PMS_P1;PMS_P2;Temp;Humidity;BMP_temperature;BMP_pressure;BME280_temperature;BME280_humidity;BME280_pressure;Samples;Min_cycle;Max_cycle;Signal;HPM_P1;HPM_P2
2021/06/10 11:05:21;;;;;;;;;;;;;;;26.50;26.04;101799.97;5056160;27;47534;-67
2021/06/10 11:10:11;;;;;;;;;;;;;;;24.12;29.83;101803.22;5018205;27;9718;-53
2021/06/10 11:12:36;;;;;;;;;;;;;;;23.70;30.51;101801.31;5060810;28;6086;-54
2021/06/10 11:15:03;;;;;;;;;;;;;;;23.66;31.52;101807.25;5068895;28;6054;-54
2021/06/10 11:17:32;;;;;;;;;;;;;;;23.71;31.64;101803.03;5085860;28;6105;-54
2021/06/10 11:19:57;;;;;;;;;;;;;;;23.72;31.73;101795.72;5073325;28;6150;-54
2021/06/10 11:22:22;;;;;;;;;;;;;;;23.75;31.66;101798.97;5083166;28;6139;-54
2021/06/10 11:24:48;;;;;;;;;;;;;;;23.84;31.83;101803.44;5085235;28;6207;-51
2021/06/10 11:27:13;;;;;;;;;;;;;;;23.89;31.86;101803.81;5079517;28;6095;-49
2021/06/10 11:29:38;;;;;;;;;;;;;;;23.97;32.22;101799.41;5079380;28;6529;-50
2021/06/10 11:32:03;;;;;;;;;;;;;;;23.98;32.46;101803.84;5079401;28;6361;-51
2021/06/10 11:34:28;;;;;;;;;;;;;;;24.03;33.30;101801.47;5081781;28;6285;-50
2021/06/10 11:36:53;;;;;;;;;;;;;;;24.12;33.44;101800.50;5075998;28;6106;-51
2021/06/10 11:39:19;;;;;;;;;;;;;;;24.13;32.75;101799.47;5073004;28;5823;-52
2021/06/10 11:41:44;;;;;;;;;;;;;;;24.13;33.09;101802.19;5082543;28;1509;-51
2021/06/10 11:44:09;;;;;;;;;;;;;;;24.14;33.14;101802.03;5078342;28;2060;-53
2021/06/10 11:46:35;;;;;;;;;;;;;;;24.12;33.58;101806.81;5080195;28;3157;-53
2021/06/10 11:49:00;;;;;;;;;;;;;;;24.16;33.05;101804.59;5087806;28;3564;-52
2021/06/10 11:51:26;;;;;;;;;;;;;;;24.16;33.28;101799.16;5083145;28;1466;-51
2021/06/10 11:53:51;;;;;;;;;;;;;;;24.17;33.12;101809.03;5082696;28;2326;-51
2021/06/10 11:56:16;;;;;;;;;;;;;;;24.21;33.06;101799.50;5086240;28;1566;-49
2021/06/10 11:58:41;;;;;;;;;;;;;;;24.28;32.88;101806.03;5083244;28;1892;-52
2021/06/10 12:01:06;;;;;;;;;;;;;;;24.35;32.75;101800.78;5087202;28;2930;-50
2021/06/10 12:03:32;;;;;;;;;;;;;;;24.34;32.78;101802.66;5084612;28;2159;-52
2021/06/10 12:05:57;;;;;;;;;;;;;;;24.37;32.57;101807.75;5082122;28;1643;-50
2021/06/10 12:08:22;;;;;;;;;;;;;;;24.39;32.49;101796.69;5086668;28;2064;-50
2021/06/10 12:10:48;;;;;;;;;;;;;;;24.43;31.96;101815.25;5075636;28;4171;-51
2021/06/10 12:13:13;;;;;;;;;;;;;;;24.45;32.31;101806.94;5081610;28;3494;-51
2021/06/10 12:15:40;;;;;;;;;;;;;;;24.47;32.69;101802.16;5083967;28;1791;-51
2021/06/10 12:18:06;;;;;;;;;;;;;;;24.49;32.56;101795.53;5085945;28;2085;-55
2021/06/10 12:20:31;;;;;;;;;;;;;;;24.51;32.72;101792.63;5076456;28;1624;-52
2021/06/10 12:22:56;;;;;;;;;;;;;;;24.52;33.00;101806.09;5069888;28;1724;-50
2021/06/10 12:25:23;;;;;;;;;;;;;;;24.57;32.79;101797.41;5071017;28;1689;-52
2021/06/10 12:27:48;;;;;;;;;;;;;;;24.66;32.38;101801.00;5066347;28;1906;-51
2021/06/10 12:30:14;;;;;;;;;;;;;;;24.75;32.35;101800.84;5071116;28;1500;-48
2021/06/10 12:32:39;;;;;;;;;;;;;;;24.73;32.64;101793.84;5067390;28;1675;-51
2021/06/10 12:35:04;;;;;;;;;;;;;;;24.72;32.53;101797.63;5067558;28;1696;-50
2021/06/10 12:37:29;;;;;;;;;;;;;;;24.74;32.58;101795.53;5072833;28;1690;-51
2021/06/10 12:39:54;;;;;;;;;;;;;;;24.67;32.89;101794.53;5068273;28;1634;-50
2021/06/10 12:42:24;;;;;;;;;;;;;;;24.59;32.91;101784.47;5074881;28;1469;-50
2021/06/10 12:44:49;;;;;;;;;;;;;;;24.58;32.90;101783.59;5066574;28;1411;-48
2021/06/10 12:47:18;;;;;;;;;;;;;;;24.57;32.72;101783.78;5057254;28;1005;-49
2021/06/10 12:49:43;;;;;;;;;;;;;;;24.59;32.53;101787.19;5074203;28;1953;-48
2021/06/10 12:52:08;;;;;;;;;;;;;;;24.55;32.67;101785.81;5060999;28;1834;-53
2021/06/10 12:54:34;;;;;;;;;;;;;;;24.56;32.94;101782.91;5065578;28;1512;-49
2021/06/10 12:56:59;;;;;;;;;;;;;;;24.56;32.80;101782.91;5065438;28;1401;-51
2021/06/10 12:59:24;;;;;;;;;;;;;;;24.56;32.89;101777.47;5057344;28;1922;-49
2021/06/10 13:01:49;;;;;;;;;;;;;;;24.54;33.07;101782.22;5059310;28;1454;-51
2021/06/10 13:04:14;;;;;;;;;;;;;;;24.54;33.14;101779.50;5071330;28;1656;-51
2021/06/10 13:06:39;;;;;;;;;;;;;;;24.56;33.08;101772.03;5057007;28;976;-51
2021/06/10 13:09:04;;;;;;;;;;;;;;;24.57;33.06;101767.41;5069175;28;1961;-49
2021/06/10 13:11:29;;;;;;;;;;;;;;;24.60;33.19;101763.50;5060754;28;1465;-51
2021/06/10 13:13:56;;;;;;;;;;;;;;;24.58;32.98;101774.56;5075673;28;1561;-49
2021/06/10 13:16:21;;;;;;;;;;;;;;;24.61;33.20;101767.94;5076889;28;1943;-51
2021/06/10 13:18:46;;;;;;;;;;;;;;;24.61;33.15;101760.63;5066562;28;1384;-50
2021/06/10 13:21:11;;;;;;;;;;;;;;;24.63;33.02;101763.19;5069968;28;1461;-52
2021/06/10 13:23:37;;;;;;;;;;;;;;;24.71;32.59;101764.06;5062594;28;1657;-49
2021/06/10 13:26:02;;;;;;;;;;;;;;;24.75;32.88;101759.94;5069231;28;1636;-52
2021/06/10 13:28:27;;;;;;;;;;;;;;;24.73;32.43;101767.44;5062558;28;2028;-50
2021/06/10 13:30:52;;;;;;;;;;;;;;;24.74;32.27;101750.06;5063027;28;1719;-50
2021/06/10 13:33:21;;;;;;;;;;;;;;;24.74;32.47;101752.78;5065810;28;1567;-52
2021/06/10 13:35:48;;;;;;;;;;;;;;;24.72;32.70;101749.38;5063410;28;1712;-52
2021/06/10 13:38:13;;;;;;;;;;;;;;;24.78;32.93;101742.38;5062177;28;1475;-48
2021/06/10 13:40:38;;;;;;;;;;;;;;;24.77;32.89;101747.00;5067749;28;1630;-49
2021/06/10 13:43:03;;;;;;;;;;;;;;;24.86;32.97;101746.00;5068748;28;1514;-50
2021/06/10 13:45:31;;;;;;;;;;;;;;;24.85;32.73;101760.66;5060329;28;1466;-52
2021/06/10 13:47:57;;;;;;;;;;;;;;;24.89;32.68;101750.25;5075381;28;1906;-52
2021/06/10 13:50:22;;;;;;;;;;;;;;;24.89;32.88;101744.81;5069377;28;1471;-52
2021/06/10 13:52:47;;;;;;;;;;;;;;;24.86;33.08;101750.59;5066205;28;1738;-49
2021/06/10 13:55:12;;;;;;;;;;;;;;;24.87;32.99;101746.84;5074670;28;1942;-52
2021/06/10 13:57:38;;;;;;;;;;;;;;;24.92;33.06;101738.97;5059462;28;1412;-51
2021/06/10 14:00:03;;;;;;;;;;;;;;;24.99;32.88;101737.31;5064005;28;1798;-51
2021/06/10 14:02:28;;;;;;;;;;;;;;;24.97;32.95;101738.50;5066258;28;1687;-52
2021/06/10 14:04:53;;;;;;;;;;;;;;;24.97;32.99;101739.34;5069001;28;1813;-52
2021/06/10 14:07:18;;;;;;;;;;;;;;;25.04;33.22;101737.66;5070176;28;1733;-49
2021/06/10 14:09:43;;;;;;;;;;;;;;;25.05;33.14;101735.78;5057632;28;1882;-50
2021/06/10 14:12:09;;;;;;;;;;;;;;;25.01;32.96;101729.81;5070766;28;1410;-50
2021/06/10 14:14:34;;;;;;;;;;;;;;;25.00;33.25;101740.88;5063251;28;1539;-50
2021/06/10 14:16:59;;;;;;;;;;;;;;;25.05;33.51;101731.19;5066756;28;1622;-50
2021/06/10 14:19:24;;;;;;;;;;;;;;;25.07;33.69;101742.78;5061521;28;1706;-50
2021/06/10 14:21:49;;;;;;;;;;;;;;;25.08;33.24;101733.53;5060293;28;1660;-53
2021/06/10 14:24:14;;;;;;;;;;;;;;;25.06;33.64;101729.31;5062384;28;1826;-52
2021/06/10 14:26:39;;;;;;;;;;;;;;;25.05;33.99;101735.78;5064160;28;1719;-52
2021/06/10 14:29:07;;;;;;;;;;;;;;;25.06;34.11;101721.97;5064152;28;1906;-52
2021/06/10 14:34:16;;;;;;;;;;;;;;;25.25;33.64;101726.19;5068846;28;1861;-52
2021/06/10 14:36:41;;;;;;;;;;;;;;;25.05;34.19;101723.00;5061165;28;1735;-49
2021/06/10 14:39:06;;;;;;;;;;;;;;;24.99;34.06;101720.94;5062904;28;1626;-52
2021/06/10 14:41:31;;;;;;;;;;;;;;;24.97;34.65;101722.13;5067361;28;1639;-52
2021/06/10 14:43:56;;;;;;;;;;;;;;;24.93;34.46;101716.13;5066147;28;1923;-50
2021/06/10 14:46:21;;;;;;;;;;;;;;;24.90;34.18;101714.59;5071689;28;1489;-50
2021/06/10 14:48:48;;;;;;;;;;;;;;;24.92;34.19;101717.16;5058248;28;1969;-49
2021/06/10 14:51:13;;;;;;;;;;;;;;;24.88;34.35;101726.72;5064184;28;1611;-51
2021/06/10 14:53:38;;;;;;;;;;;;;;;24.90;34.10;101714.59;5064692;28;1452;-52
2021/06/10 14:56:03;;;;;;;;;;;;;;;24.86;34.09;101717.88;5070977;28;1340;-50
2021/06/10 14:58:28;;;;;;;;;;;;;;;24.86;34.43;101723.31;5064005;28;1369;-51
2021/06/10 15:00:54;;;;;;;;;;;;;;;24.88;34.11;101719.41;5070209;28;2331;-49
2021/06/10 15:03:20;;;;;;;;;;;;;;;24.90;34.36;101720.06;5072524;28;2078;-51
2021/06/10 15:05:45;;;;;;;;;;;;;;;24.93;34.50;101724.31;5073886;28;1750;-50
2021/06/10 15:08:11;;;;;;;;;;;;;;;24.91;34.66;101721.75;5070754;28;1965;-53
2021/06/10 15:10:36;;;;;;;;;;;;;;;24.94;34.83;101726.06;5073940;28;1732;-52
2021/06/10 15:13:01;;;;;;;;;;;;;;;24.93;34.52;101722.44;5075012;28;1877;-51
2021/06/10 15:15:26;;;;;;;;;;;;;;;24.97;34.39;101725.72;5073691;28;1794;-51
2021/06/10 15:17:51;;;;;;;;;;;;;;;24.95;34.35;101719.56;5074685;28;1860;-53
2021/06/10 15:20:16;;;;;;;;;;;;;;;24.98;35.21;101721.13;5074564;28;2110;-52
2021/06/10 15:22:41;;;;;;;;;;;;;;;24.99;35.98;101720.94;5070018;28;1933;-53
2021/06/10 15:25:08;;;;;;;;;;;;;;;25.03;35.89;101718.72;5068378;28;1912;-51
2021/06/10 15:27:33;;;;;;;;;;;;;;;25.04;36.00;101720.44;5058869;28;1734;-50
2021/06/10 15:29:58;;;;;;;;;;;;;;;25.07;35.88;101718.22;5057344;28;1989;-51
2021/06/10 15:32:24;;;;;;;;;;;;;;;25.09;35.94;101716.16;5057910;28;1766;-51
2021/06/10 15:34:49;;;;;;;;;;;;;;;25.08;35.52;101711.72;5060851;28;1738;-51
2021/06/10 15:37:15;;;;;;;;;;;;;;;25.13;35.23;101716.66;5056727;28;1661;-51
2021/06/10 15:39:40;;;;;;;;;;;;;;;25.09;35.31;101707.97;5054351;28;1696;-51
2021/06/10 15:42:05;;;;;;;;;;;;;;;25.09;35.45;101712.56;5057803;28;1802;-53
2021/06/10 15:44:30;;;;;;;;;;;;;;;25.10;35.59;101703.34;5055458;28;1850;-52
2021/06/10 15:46:55;;;;;;;;;;;;;;;25.13;35.64;101703.00;5058047;28;2455;-49
2021/06/10 15:49:21;;;;;;;;;;;;;;;25.16;35.90;101702.69;5061683;28;1890;-50
2021/06/10 15:51:46;;;;;;;;;;;;;;;25.13;35.61;101701.13;5068715;28;1493;-52
2021/06/10 15:54:13;;;;;;;;;;;;;;;25.14;35.84;101699.25;5072915;28;1722;-51
2021/06/10 15:56:39;;;;;;;;;;;;;;;25.16;35.47;101699.94;5075461;28;1700;-52
2021/06/10 15:59:04;;;;;;;;;;;;;;;25.18;35.98;101696.03;5074127;28;1885;-51
2021/06/10 16:01:29;;;;;;;;;;;;;;;25.35;35.95;101685.91;5072735;28;1795;-64
2021/06/10 16:03:54;;;;;;;;;;;;;;;25.34;35.94;101689.66;5073953;28;1423;-64
2021/06/10 16:06:21;;;;;;;;;;;;;;;25.34;36.75;101697.00;5071904;28;1904;-64
2021/06/10 16:08:46;;;;;;;;;;;;;;;25.44;38.76;101695.75;5076694;28;1968;-63
2021/06/10 16:11:11;;;;;;;;;;;;;;;25.56;42.88;101701.69;5077990;28;2164;-64
2021/06/10 16:13:36;;;;;;;;;;;;;;;25.57;41.09;101700.69;5075918;28;2042;-64
2021/06/10 16:16:01;;;;;;;;;;;;;;;25.58;39.44;101692.31;5061529;28;1836;-64
2021/06/10 16:18:26;;;;;;;;;;;;;;;25.57;38.74;101690.63;5060047;28;1775;-64
2021/06/10 16:20:51;;;;;;;;;;;;;;;25.46;38.57;101681.94;5068912;28;1697;-63
2021/06/10 16:23:16;;;;;;;;;;;;;;;25.49;38.56;101687.03;5064711;28;1771;-64
2021/06/10 16:25:41;;;;;;;;;;;;;;;25.55;38.49;101686.34;5070766;28;1782;-64
2021/06/10 16:28:07;;;;;;;;;;;;;;;25.58;38.13;101680.53;5069093;28;1910;-64
2021/06/10 16:30:32;;;;;;;;;;;;;;;25.56;38.50;101682.59;5065006;28;1668;-64
2021/06/10 16:32:57;;;;;;;;;;;;;;;25.64;38.13;101679.84;5067987;28;1708;-64
2021/06/10 16:35:23;;;;;;;;;;;;;;;25.57;38.42;101667.91;5068008;28;1700;-63
2021/06/10 16:37:48;;;;;;;;;;;;;;;25.60;37.82;101681.22;5071296;28;2431;-64
2021/06/10 16:40:13;;;;;;;;;;;;;;;25.72;37.66;101679.81;5070084;28;1978;-64
2021/06/10 16:42:38;;;;;;;;;;;;;;;25.71;38.33;101672.66;5059527;28;1730;-64
2021/06/10 16:45:03;;;;;;;;;;;;;;;25.59;38.24;101671.31;5058674;28;1779;-64
2021/06/10 16:47:28;;;;;;;;;;;;;;;25.69;37.88;101676.59;5057876;28;1614;-64
2021/06/10 16:49:54;;;;;;;;;;;;;;;25.68;38.26;101675.72;5063202;28;1961;-64
2021/06/10 16:52:19;;;;;;;;;;;;;;;25.59;38.85;101666.72;5059561;28;1635;-64
2021/06/10 16:54:44;;;;;;;;;;;;;;;25.65;38.77;101665.16;5060283;28;1800;-64
2021/06/10 16:57:09;;;;;;;;;;;;;;;25.62;39.25;101661.94;5060458;28;1854;-63
2021/06/10 16:59:34;;;;;;;;;;;;;;;25.52;39.50;101659.41;5070394;28;1541;-64
2021/06/10 17:02:07;;;;;;;;;;;;;;;25.36;40.20;101657.59;5073809;28;2372;-65
2021/06/10 17:04:32;;;;;;;;;;;;;;;25.41;39.96;101659.81;5072673;28;1632;-66
2021/06/10 17:06:57;;;;;;;;;;;;;;;25.33;39.73;101659.81;5075959;28;1618;-64
2021/06/10 17:09:24;;;;;;;;;;;;;;;25.39;39.74;101653.66;5070657;28;1941;-64
2021/06/10 17:11:49;;;;;;;;;;;;;;;25.31;40.01;101657.25;5076095;28;1639;-64
2021/06/10 17:14:14;;;;;;;;;;;;;;;25.31;39.83;101661.88;5062627;28;1761;-63
2021/06/10 17:16:40;;;;;;;;;;;;;;;25.18;40.04;101657.81;5065914;28;2287;-64
2021/06/10 17:19:05;;;;;;;;;;;;;;;25.17;40.37;101661.59;5070956;28;1931;-64
2021/06/10 17:21:30;;;;;;;;;;;;;;;25.13;40.51;101665.69;5066716;28;1885;-65
2021/06/10 17:23:55;;;;;;;;;;;;;;;25.23;40.42;101660.88;5064818;28;1683;-66
2021/06/10 17:26:20;;;;;;;;;;;;;;;25.29;40.25;101664.78;5074729;28;2076;-64
2021/06/10 17:28:46;;;;;;;;;;;;;;;25.17;40.41;101667.03;5074773;28;1910;-66
2021/06/10 17:31:11;;;;;;;;;;;;;;;25.07;41.03;101660.09;5069193;28;1793;-65
2021/06/10 17:33:36;;;;;;;;;;;;;;;25.17;41.06;101658.00;5073168;28;1708;-63
2021/06/10 17:36:01;;;;;;;;;;;;;;;25.18;41.34;101671.47;5075560;28;1845;-63
2021/06/10 17:38:26;;;;;;;;;;;;;;;25.07;41.23;101679.19;5075777;28;1644;-63
2021/06/10 17:40:51;;;;;;;;;;;;;;;25.04;41.66;101672.19;5071685;28;1843;-62
2021/06/10 17:43:16;;;;;;;;;;;;;;;24.96;41.58;101672.19;5071094;28;1760;-63
2021/06/10 17:45:41;;;;;;;;;;;;;;;25.00;41.51;101676.28;5065676;28;1501;-63
2021/06/10 17:48:06;;;;;;;;;;;;;;;24.96;41.82;101679.53;5071609;28;1973;-64
2021/06/10 17:50:32;;;;;;;;;;;;;;;24.91;42.45;101682.72;5074377;28;1917;-63
2021/06/10 17:52:57;;;;;;;;;;;;;;;24.69;43.51;101686.19;5073716;28;1912;-63
2021/06/10 17:55:22;;;;;;;;;;;;;;;24.57;44.01;101680.19;5072067;28;1618;-64
2021/06/10 17:57:47;;;;;;;;;;;;;;;24.68;43.93;101689.94;5072381;28;1643;-63
2021/06/10 18:00:12;;;;;;;;;;;;;;;24.49;44.02;101682.94;5064827;28;1591;-63
2021/06/10 18:02:37;;;;;;;;;;;;;;;24.58;43.76;101685.50;5075372;28;1931;-63
2021/06/10 18:05:02;;;;;;;;;;;;;;;24.64;44.00;101689.41;5069312;28;1743;-63
2021/06/10 18:07:28;;;;;;;;;;;;;;;24.51;44.49;101680.91;5063047;28;1654;-64
2021/06/10 18:09:53;;;;;;;;;;;;;;;24.40;44.67;101692.97;5075331;28;2278;-64
2021/06/10 18:12:18;;;;;;;;;;;;;;;24.31;44.94;101691.28;5064762;28;1619;-64
2021/06/10 18:14:43;;;;;;;;;;;;;;;24.14;45.08;101689.53;5074985;28;1717;-64
2021/06/10 18:17:09;;;;;;;;;;;;;;;24.32;44.63;101687.53;5074065;28;1659;-65
2021/06/10 18:19:35;;;;;;;;;;;;;;;24.28;45.02;101690.75;5068014;28;2106;-65
2021/06/10 18:22:00;;;;;;;;;;;;;;;24.21;45.06;101696.84;5065999;28;1648;-64
2021/06/10 18:24:25;;;;;;;;;;;;;;;24.28;44.98;101691.63;5072563;28;1742;-65
2021/06/10 18:26:50;;;;;;;;;;;;;;;24.32;45.00;101694.84;5062685;28;2103;-65
2021/06/10 18:29:16;;;;;;;;;;;;;;;24.13;45.14;101694.13;5071729;28;1910;-65
2021/06/10 18:31:41;;;;;;;;;;;;;;;23.92;45.59;101695.59;5074875;28;2575;-65
2021/06/10 18:34:06;;;;;;;;;;;;;;;23.96;45.81;101705.13;5072666;28;1769;-65
2021/06/10 18:36:31;;;;;;;;;;;;;;;23.93;45.94;101709.03;5075018;28;1712;-65
2021/06/10 18:38:56;;;;;;;;;;;;;;;23.84;46.06;101704.56;5075310;28;1814;-65
2021/06/10 18:41:24;;;;;;;;;;;;;;;23.88;46.22;101706.81;5066104;28;1868;-65
2021/06/10 18:43:49;;;;;;;;;;;;;;;24.01;45.81;101706.31;5074821;28;1741;-65
2021/06/10 18:46:14;;;;;;;;;;;;;;;23.85;46.07;101704.41;5074767;28;1789;-65
2021/06/10 18:48:39;;;;;;;;;;;;;;;23.84;46.15;101710.88;5073927;28;1890;-65
2021/06/10 18:51:04;;;;;;;;;;;;;;;23.77;46.43;101708.97;5074658;28;1583;-65
2021/06/10 18:53:29;;;;;;;;;;;;;;;23.83;46.16;101709.16;5074726;28;1894;-65
2021/06/10 18:55:54;;;;;;;;;;;;;;;24.13;45.48;101704.16;5074589;28;1548;-65
2021/06/10 18:58:20;;;;;;;;;;;;;;;24.00;45.90;101711.97;5074178;28;1930;-65
2021/06/10 19:00:45;;;;;;;;;;;;;;;24.05;46.06;101712.28;5074775;28;1623;-64
2021/06/10 19:03:10;;;;;;;;;;;;;;;24.06;46.02;101714.84;5074503;28;1696;-63
2021/06/10 19:05:35;;;;;;;;;;;;;;;24.19;45.77;101720.66;5067799;28;1838;-65
2021/06/10 19:08:00;;;;;;;;;;;;;;;24.02;46.03;101731.69;5072797;28;1902;-64
2021/06/10 19:10:26;;;;;;;;;;;;;;;23.97;46.40;101725.91;5070881;28;1656;-64
2021/06/10 19:12:51;;;;;;;;;;;;;;;23.57;47.06;101721.13;5071386;28;1583;-64
2021/06/10 19:15:18;;;;;;;;;;;;;;;23.53;47.17;101723.31;5060564;28;1805;-65
2021/06/10 19:17:43;;;;;;;;;;;;;;;23.55;47.26;101726.75;5062147;28;1713;-64
2021/06/10 19:20:08;;;;;;;;;;;;;;;23.73;46.83;101723.94;5059954;28;1728;-64
2021/06/10 19:22:36;;;;;;;;;;;;;;;23.50;46.97;101724.47;5057777;28;1775;-65
2021/06/10 19:25:01;;;;;;;;;;;;;;;23.49;47.07;101725.47;5054847;28;1655;-65
2021/06/10 19:27:27;;;;;;;;;;;;;;;23.52;46.74;101730.63;5055478;28;1854;-65
2021/06/10 19:29:52;;;;;;;;;;;;;;;23.44;47.30;101727.84;5063744;28;1949;-64
2021/06/10 19:32:22;;;;;;;;;;;;;;;23.54;46.88;101734.06;5062348;28;1879;-64
2021/06/10 19:34:47;;;;;;;;;;;;;;;23.44;47.50;101733.31;5057995;28;2325;-64
2021/06/10 19:37:14;;;;;;;;;;;;;;;23.42;47.74;101737.19;5072282;28;1733;-64
2021/06/10 19:39:40;;;;;;;;;;;;;;;23.40;47.52;101737.34;5069424;28;1627;-64
2021/06/10 19:42:05;;;;;;;;;;;;;;;23.37;47.45;101740.38;5075495;28;1820;-64
2021/06/10 19:44:30;;;;;;;;;;;;;;;23.43;47.49;101733.47;5072033;28;1848;-64
2021/06/10 19:46:55;;;;;;;;;;;;;;;23.42;47.27;101742.63;5074252;28;1802;-64
2021/06/10 19:49:20;;;;;;;;;;;;;;;23.27;47.73;101733.38;5078190;28;2075;-64
2021/06/10 19:51:45;;;;;;;;;;;;;;;23.30;47.64;101738.47;5062610;28;2890;-64
2021/06/10 19:54:10;;;;;;;;;;;;;;;23.26;47.43;101746.13;5065787;28;1741;-64
2021/06/10 19:56:35;;;;;;;;;;;;;;;23.44;47.35;101740.59;5078020;28;1773;-64
2021/06/10 19:59:00;;;;;;;;;;;;;;;23.47;46.95;101743.84;5068622;28;1586;-65
2021/06/10 20:01:25;;;;;;;;;;;;;;;23.22;47.46;101738.44;5074955;28;1696;-64
2021/06/10 20:03:51;;;;;;;;;;;;;;;23.36;47.63;101754.16;5074248;28;1685;-64
2021/06/10 20:06:19;;;;;;;;;;;;;;;23.16;47.86;101743.47;5067024;28;2145;-64
2021/06/10 20:08:45;;;;;;;;;;;;;;;23.15;47.58;101749.06;5067204;28;2119;-64
2021/06/10 20:11:10;;;;;;;;;;;;;;;23.32;48.98;101741.88;5070111;28;1764;-64
2021/06/10 20:13:35;;;;;;;;;;;;;;;23.30;48.77;101750.19;5072877;28;1725;-64
2021/06/10 20:16:00;;;;;;;;;;;;;;;23.14;48.87;101758.25;5065550;28;1554;-64
2021/06/10 20:18:26;;;;;;;;;;;;;;;23.08;48.72;101754.31;5070503;28;1641;-65
2021/06/10 20:20:51;;;;;;;;;;;;;;;22.99;48.52;101757.97;5062390;28;1593;-65
2021/06/10 20:23:16;;;;;;;;;;;;;;;23.03;48.68;101759.38;5069396;28;1618;-65
2021/06/10 20:25:41;;;;;;;;;;;;;;;23.01;48.06;101753.22;5065443;28;1988;-65
2021/06/10 20:30:49;;;;;;;;;;;;;;;22.88;48.84;101752.78;5068688;28;1470;-65
2021/06/10 20:33:14;;;;;;;;;;;;;;;22.89;49.40;101756.38;5072544;28;1581;-65
2021/06/10 20:35:39;;;;;;;;;;;;;;;23.04;48.62;101757.50;5060429;28;1825;-64
2021/06/10 20:38:05;;;;;;;;;;;;;;;23.10;48.25;101759.59;5061561;28;1652;-65
2021/06/10 20:40:30;;;;;;;;;;;;;;;23.16;48.22;101754.34;5071907;28;2639;-64
2021/06/10 20:42:55;;;;;;;;;;;;;;;23.43;48.27;101758.81;5062302;28;1922;-64
2021/06/10 20:45:20;;;;;;;;;;;;;;;23.47;47.75;101757.44;5069365;28;1451;-64
2021/06/10 20:47:45;;;;;;;;;;;;;;;23.51;47.69;101755.25;5066828;28;1843;-64
2021/06/10 20:50:10;;;;;;;;;;;;;;;23.46;47.75;101761.19;5059789;28;1953;-62
2021/06/10 20:52:35;;;;;;;;;;;;;;;23.38;47.85;101760.28;5070516;28;1984;-64
2021/06/10 20:55:00;;;;;;;;;;;;;;;23.31;47.83;101762.78;5072551;28;1685;-63
2021/06/10 20:57:26;;;;;;;;;;;;;;;23.30;48.22;101765.66;5062205;28;1786;-63
2021/06/10 20:59:51;;;;;;;;;;;;;;;23.35;47.91;101768.75;5067311;28;1556;-63
2021/06/10 21:02:16;;;;;;;;;;;;;;;23.33;47.86;101770.78;5067356;28;1641;-62
2021/06/10 21:04:41;;;;;;;;;;;;;;;23.39;47.75;101767.44;5062788;28;1655;-64
2021/06/10 21:07:07;;;;;;;;;;;;;;;23.44;47.62;101768.66;5069711;28;1711;-64
2021/06/10 21:09:32;;;;;;;;;;;;;;;23.43;47.33;101771.53;5072437;28;1988;-64
2021/06/10 21:11:57;;;;;;;;;;;;;;;23.49;47.25;101769.00;5069144;28;1828;-66
2021/06/10 21:14:24;;;;;;;;;;;;;;;23.48;47.22;101761.88;5066476;28;1617;-65
2021/06/10 21:16:49;;;;;;;;;;;;;;;23.41;47.18;101766.25;5066646;28;1566;-66
2021/06/10 21:19:14;;;;;;;;;;;;;;;23.42;47.15;101761.69;5068496;28;1691;-63
2021/06/10 21:21:39;;;;;;;;;;;;;;;23.44;47.13;101765.09;5067827;28;1540;-63
2021/06/10 21:24:04;;;;;;;;;;;;;;;23.46;46.68;101769.38;5066192;28;1709;-65
2021/06/10 21:26:29;;;;;;;;;;;;;;;23.47;47.10;101767.47;5066203;28;1720;-64
2021/06/10 21:28:54;;;;;;;;;;;;;;;23.46;46.89;101758.47;5070096;28;1894;-63
2021/06/10 21:31:20;;;;;;;;;;;;;;;23.44;46.67;101765.09;5068793;28;1640;-63
2021/06/10 21:33:45;;;;;;;;;;;;;;;23.43;46.92;101763.38;5063905;28;1551;-63
2021/06/10 21:36:10;;;;;;;;;;;;;;;23.44;47.00;101765.09;5068002;28;1639;-64
2021/06/10 21:38:35;;;;;;;;;;;;;;;23.44;47.10;101765.09;5063705;28;1563;-63
2021/06/10 21:41:00;;;;;;;;;;;;;;;23.44;47.36;101754.22;5069195;28;1632;-64
2021/06/10 21:43:25;;;;;;;;;;;;;;;23.44;47.30;101754.22;5066600;28;1742;-64
2021/06/10 21:45:50;;;;;;;;;;;;;;;23.39;47.71;101762.84;5068481;28;1630;-65
2021/06/10 21:48:15;;;;;;;;;;;;;;;23.39;47.52;101759.28;5060217;28;1898;-65
2021/06/10 21:50:40;;;;;;;;;;;;;;;23.37;47.58;101761.28;5072860;28;1567;-66
2021/06/10 21:53:05;;;;;;;;;;;;;;;23.34;47.85;101761.63;5061582;28;1421;-64
2021/06/10 21:55:31;;;;;;;;;;;;;;;23.32;47.68;101764.50;5066339;28;1472;-65
2021/06/10 21:57:56;;;;;;;;;;;;;;;23.33;47.39;101760.75;5068968;28;1370;-65
2021/06/10 22:00:21;;;;;;;;;;;;;;;23.28;47.32;101751.41;5059526;28;1661;-64
2021/06/10 22:02:46;;;;;;;;;;;;;;;23.29;47.76;101755.81;5059232;28;1640;-64
2021/06/10 22:05:11;;;;;;;;;;;;;;;23.27;47.73;101747.81;5062280;28;1740;-64
2021/06/10 22:07:36;;;;;;;;;;;;;;;23.30;47.72;101752.06;5066305;28;1476;-64
2021/06/10 22:10:01;;;;;;;;;;;;;;;23.27;47.48;101755.13;5061781;28;1910;-63
2021/06/10 22:12:27;;;;;;;;;;;;;;;23.29;47.41;101747.66;5072404;28;1574;-63
2021/06/10 22:14:52;;;;;;;;;;;;;;;23.26;47.33;101743.38;5059723;28;1460;-63
2021/06/10 22:17:17;;;;;;;;;;;;;;;23.25;47.59;101738.09;5074990;28;1980;-64
2021/06/10 22:19:42;;;;;;;;;;;;;;;23.24;47.72;101736.41;5064048;28;1404;-63
2021/06/10 22:22:07;;;;;;;;;;;;;;;23.23;47.78;101735.53;5070337;28;1375;-63
2021/06/10 22:24:32;;;;;;;;;;;;;;;23.22;47.84;101735.72;5059059;28;1518;-63
2021/06/10 22:26:57;;;;;;;;;;;;;;;23.20;47.62;101734.00;5070320;28;1505;-63
2021/06/10 22:29:22;;;;;;;;;;;;;;;23.18;47.62;101730.59;5063960;28;1960;-63
2021/06/10 22:31:47;;;;;;;;;;;;;;;23.18;47.94;101727.88;5074472;28;1857;-63
2021/06/10 22:34:13;;;;;;;;;;;;;;;23.18;47.79;101724.28;5059911;28;1468;-63
2021/06/10 22:36:38;;;;;;;;;;;;;;;23.16;48.13;101726.31;5071839;28;1536;-63
2021/06/10 22:39:03;;;;;;;;;;;;;;;23.14;48.15;101723.75;5057578;28;1839;-63
2021/06/10 22:41:28;;;;;;;;;;;;;;;23.14;47.85;101733.78;5064497;28;1397;-63
2021/06/10 22:43:53;;;;;;;;;;;;;;;23.12;47.79;101725.78;5064736;28;1702;-62
2021/06/10 22:46:18;;;;;;;;;;;;;;;23.11;47.99;101721.34;5067881;28;1690;-63
2021/06/10 22:48:43;;;;;;;;;;;;;;;23.09;48.09;101715.25;5071792;28;1943;-63
2021/06/10 22:51:08;;;;;;;;;;;;;;;23.08;48.10;101713.53;5061513;28;1506;-63
2021/06/10 22:53:38;;;;;;;;;;;;;;;23.07;48.00;101719.97;5064992;28;1419;-63
2021/06/10 22:56:03;;;;;;;;;;;;;;;23.06;48.10;101714.69;5069487;28;1439;-63
2021/06/10 22:58:28;;;;;;;;;;;;;;;23.04;48.06;101709.41;5058604;28;1647;-64
2021/06/10 23:00:53;;;;;;;;;;;;;;;23.03;48.26;101707.72;5070420;28;1409;-64
2021/06/10 23:03:18;;;;;;;;;;;;;;;23.03;48.57;101710.44;5062984;28;1404;-63
2021/06/10 23:05:44;;;;;;;;;;;;;;;23.02;48.59;101713.31;5063507;28;1418;-64
2021/06/10 23:08:09;;;;;;;;;;;;;;;23.01;48.53;101722.47;5069595;28;1969;-64
2021/06/10 23:10:34;;;;;;;;;;;;;;;22.98;48.40;101710.03;5057898;28;1515;-64
2021/06/10 23:12:59;;;;;;;;;;;;;;;22.99;48.56;101719.91;5065328;28;2087;-64
2021/06/10 23:15:24;;;;;;;;;;;;;;;22.98;48.57;101718.19;5065931;28;1435;-64
2021/06/10 23:17:50;;;;;;;;;;;;;;;22.98;48.48;101712.75;5067040;28;1401;-64
2021/06/10 23:20:15;;;;;;;;;;;;;;;22.97;48.29;101711.06;5059070;28;1445;-64
2021/06/10 23:22:40;;;;;;;;;;;;;;;22.97;48.73;101705.63;5071279;28;1471;-64
2021/06/10 23:25:05;;;;;;;;;;;;;;;22.97;48.54;101710.19;5060503;28;1628;-63
2021/06/10 23:27:30;;;;;;;;;;;;;;;22.96;48.42;101712.06;5065101;28;1383;-63
2021/06/10 23:29:56;;;;;;;;;;;;;;;22.95;48.33;101712.22;5067713;28;1977;-63
2021/06/10 23:32:21;;;;;;;;;;;;;;;22.91;48.82;101706.28;5058170;28;1401;-63
2021/06/10 23:34:46;;;;;;;;;;;;;;;22.93;48.94;101714.28;5074494;28;1855;-64
2021/06/10 23:37:11;;;;;;;;;;;;;;;22.91;48.91;101717.16;5068144;28;1402;-64
2021/06/10 23:39:36;;;;;;;;;;;;;;;22.78;49.19;101717.53;5064603;28;1700;-63
2021/06/10 23:42:01;;;;;;;;;;;;;;;22.69;49.84;101723.06;5060669;28;1422;-64
2021/06/10 23:44:26;;;;;;;;;;;;;;;22.58;50.18;101726.00;5071222;28;1577;-62
2021/06/10 23:46:52;;;;;;;;;;;;;;;22.60;49.83;101730.25;5068306;28;1845;-63
2021/06/10 23:49:17;;;;;;;;;;;;;;;22.67;49.75;101735.94;5062266;28;1949;-63